Puerto Limon, Costa Rica
Current Conditions -  °F | °C
As of 1:00 PM on Friday 21 Nov 2014 (Local Time) from MRPV Reporting Station
Broken Clouds Broken Clouds  
Wind Chill: 79°   Ceiling: 12000
Heat Index: 80°   Visibility: 6mi
Dew Point: 61°   Wind: 14mph
Humidity: 54%   Direction: 60°ENE
Pressure: 30"   Gusts: NA
Location:  9.99°N, 83.04°W
Report Text: MRPV 211900Z 06012KT 9999 FEW045 BKN120 26/16 A3000 NOSIG
Loading
Personal Weather Stations






























Interactive Weather Map New forecast layout! Learn more

10-Day Weather Forecast

Advertisements
Track Severe Weather on mobile